Time;durP1;ratioP1;P1;durP2;ratioP2;P2;SDS_P1;SDS_P2;PMS_P1;PMS_P2;Temp;Humidity;BMP_temperature;BMP_pressure;BME280_temperature;BME280_humidity;BME280_pressure;Samples;Min_cycle;Max_cycle;Signal;HPM_P1;HPM_P2
2022/06/24 00:00:03;;;;;;;6.38;3.58;;;21.40;99.10;;;;;;6320886;22;19999;-90
2022/06/24 00:02:37;;;;;;;6.97;3.90;;;21.40;99.10;;;;;;6328437;22;20003;-91
2022/06/24 00:05:28;;;;;;;5.13;4.30;;;21.40;99.10;;;;;;6341044;22;19994;-90
2022/06/24 00:08:17;;;;;;;4.07;3.47;;;21.40;99.10;;;;;;6331496;22;20139;-90
2022/06/24 00:10:51;;;;;;;6.55;4.18;;;21.40;99.20;;;;;;6340660;22;20017;-91
2022/06/24 00:13:40;;;;;;;7.75;3.80;;;21.30;99.10;;;;;;6341496;22;20085;-90
2022/06/24 00:16:25;;;;;;;;;;;;;;;;;;;;;
2022/06/24 00:19:44;;;;;;;;;;;;;;;;;;;;;
2022/06/24 00:22:32;;;;;;;5.68;4.05;;;21.30;99.20;;;;;;6318403;22;20060;-91
2022/06/24 00:25:23;;;;;;;7.65;4.63;;;21.30;99.20;;;;;;6295793;22;19999;-90
2022/06/24 00:28:10;;;;;;;5.43;4.57;;;21.30;99.30;;;;;;6292245;22;20078;-91
2022/06/24 00:31:15;;;;;;;8.65;4.57;;;21.30;99.30;;;;;;6318666;22;19995;-90
2022/06/24 00:33:45;;;;;;;5.13;4.38;;;21.30;99.40;;;;;;6345185;22;20485;-92
2022/06/24 00:36:15;;;;;;;5.32;4.28;;;21.30;99.40;;;;;;6318989;22;20007;-90
2022/06/24 00:38:59;;;;;;;5.75;4.97;;;21.30;99.40;;;;;;6289588;22;20011;-90
2022/06/24 00:41:31;;;;;;;4.90;4.40;;;21.30;99.50;;;;;;6314432;22;19999;-91
2022/06/24 00:44:28;;;;;;;7.47;4.32;;;21.30;99.40;;;;;;6316540;22;20010;-92
2022/06/24 00:47:08;;;;;;;5.13;3.95;;;21.30;99.50;;;;;;6336421;22;20013;-88
2022/06/24 00:50:06;;;;;;;;;;;;;;;;;;;;;
2022/06/24 00:52:59;;;;;;;5.30;4.80;;;21.30;99.60;;;;;;6351935;22;20025;-90
2022/06/24 00:55:56;;;;;;;6.53;4.35;;;21.40;99.60;;;;;;6283881;22;20018;-91
2022/06/24 00:58:37;;;;;;;6.30;4.93;;;21.40;99.70;;;;;;6296645;22;20014;-91
2022/06/24 01:01:06;;;;;;;6.00;4.35;;;21.30;99.60;;;;;;6317775;22;19995;-90
2022/06/24 01:03:47;;;;;;;6.60;5.93;;;21.40;99.60;;;;;;6315334;22;20025;-90
2022/06/24 01:06:14;;;;;;;6.35;5.47;;;21.30;99.70;;;;;;6288819;22;20007;-91
2022/06/24 01:08:51;;;;;;;7.20;5.80;;;21.30;99.60;;;;;;6313568;22;20010;-90
2022/06/24 01:12:05;;;;;;;9.18;5.93;;;21.30;99.60;;;;;;6313956;22;20079;-89
2022/06/24 01:14:43;;;;;;;7.20;6.50;;;21.30;99.70;;;;;;6219708;23;20028;-90
2022/06/24 01:17:31;;;;;;;7.53;6.13;;;21.30;99.70;;;;;;6201567;22;20031;-89
2022/06/24 01:20:08;;;;;;;8.48;5.78;;;21.30;99.80;;;;;;6313164;22;20371;-90
2022/06/24 01:22:35;;;;;;;6.32;5.72;;;21.30;99.70;;;;;;6313393;22;20424;-90
2022/06/24 01:25:05;;;;;;;8.10;5.47;;;21.30;99.80;;;;;;6313064;22;19999;-91
2022/06/24 01:27:54;;;;;;;;;;;;;;;;;;;;;
2022/06/24 01:30:33;;;;;;;;;;;;;;;;;;;;;
2022/06/24 01:33:11;;;;;;;7.07;6.38;;;21.30;99.80;;;;;;6340819;22;20082;-92
2022/06/24 01:35:45;;;;;;;6.65;5.95;;;21.30;99.80;;;;;;6313408;22;20003;-91
2022/06/24 01:38:25;;;;;;;8.30;6.10;;;21.20;99.90;;;;;;6288630;22;20067;-91
2022/06/24 01:41:04;;;;;;;6.85;6.00;;;21.20;99.90;;;;;;6286944;22;20010;-91
2022/06/24 01:44:05;;;;;;;;;;;;;;;;;;;;;
2022/06/24 01:46:36;;;;;;;8.07;6.38;;;21.20;99.90;;;;;;6315974;22;20083;-90
2022/06/24 01:49:10;;;;;;;7.28;5.80;;;21.20;99.90;;;;;;6313077;22;20078;-91
2022/06/24 01:52:01;;;;;;;6.05;5.45;;;21.10;99.90;;;;;;6313184;22;20011;-92
2022/06/24 01:54:32;;;;;;;6.95;5.45;;;21.10;99.90;;;;;;6311999;22;20003;-91
2022/06/24 01:57:04;;;;;;;6.85;5.18;;;21.10;99.90;;;;;;6312705;22;20007;-90
2022/06/24 01:59:35;;;;;;;6.05;4.75;;;21.10;99.90;;;;;;6313853;22;20007;-90
2022/06/24 02:02:34;;;;;;;;;;;;;;;;;;;;;
2022/06/24 02:05:02;;;;;;;6.25;5.28;;;21.00;99.90;;;;;;6341371;22;20073;-90
2022/06/24 02:07:44;;;;;;;7.53;5.40;;;21.00;99.90;;;;;;6314251;22;19999;-91
2022/06/24 02:16:30;;;;;;;;;;;;;;;;;;;;;
2022/06/24 02:19:36;;;;;;;5.97;5.15;;;20.90;99.90;;;;;;6342965;22;20002;-91
2022/06/24 02:21:59;;;;;;;7.63;4.38;;;20.90;99.90;;;;;;6337019;22;20003;-92
2022/06/24 02:24:44;;;;;;;7.72;4.00;;;20.90;99.90;;;;;;6313383;22;20014;-89
2022/06/24 02:27:19;;;;;;;6.25;3.60;;;20.80;99.90;;;;;;6289580;22;20007;-89
2022/06/24 02:30:15;;;;;;;;;;;;;;;;;;;;;
2022/06/24 02:33:01;;;;;;;;;;;;;;;;;;;;;
2022/06/24 02:35:29;;;;;;;3.28;2.20;;;20.60;99.90;;;;;;6340298;22;20078;-89
2022/06/24 02:38:00;;;;;;;2.60;1.85;;;20.60;99.90;;;;;;6311542;22;20014;-91
2022/06/24 02:40:47;;;;;;;2.92;1.83;;;20.60;99.90;;;;;;6286708;22;20007;-92
2022/06/24 02:43:55;;;;;;;2.08;1.52;;;20.60;99.90;;;;;;6287308;22;20089;-91
2022/06/24 02:46:36;;;;;;;;;;;;;;;;;;;;;
2022/06/24 02:49:19;;;;;;;3.75;1.98;;;20.50;99.90;;;;;;6216245;23;20083;-90
2022/06/24 02:52:02;;;;;;;3.08;1.75;;;20.50;99.90;;;;;;6254469;22;20017;-90
2022/06/24 02:54:28;;;;;;;2.60;1.50;;;20.50;99.90;;;;;;6291314;22;20416;-90
2022/06/24 02:56:59;;;;;;;1.88;1.50;;;20.40;99.90;;;;;;6308647;22;20060;-90
2022/06/24 02:59:30;;;;;;;3.75;1.80;;;20.40;99.90;;;;;;6287384;22;20011;-90
2022/06/24 03:02:15;;;;;;;;;;;;;;;;;;;;;
2022/06/24 03:04:50;;;;;;;3.65;2.00;;;20.20;99.90;;;;;;6316881;22;20073;-90
2022/06/24 03:07:28;;;;;;;;;;;;;;;;;;;;;
2022/06/24 03:10:07;;;;;;;5.10;2.00;;;20.00;99.90;;;;;;6342441;22;20078;-92
2022/06/24 03:12:41;;;;;;;3.78;1.90;;;20.00;99.90;;;;;;6313954;22;20060;-88
2022/06/24 03:15:33;;;;;;;1.92;1.70;;;20.10;99.90;;;;;;6313942;22;20002;-90
2022/06/24 03:17:59;;;;;;;4.28;1.77;;;20.10;99.90;;;;;;6312601;22;20010;-90
2022/06/24 03:20:31;;;;;;;2.15;1.70;;;20.10;99.90;;;;;;6315034;22;20003;-91
2022/06/24 03:23:29;;;;;;;;;;;;;;;;;;;;;
2022/06/24 03:25:58;;;;;;;3.20;1.48;;;20.10;99.90;;;;;;6321292;22;20078;-91
2022/06/24 03:28:39;;;;;;;2.13;1.45;;;20.00;99.90;;;;;;6314921;22;20003;-90
2022/06/24 03:31:07;;;;;;;2.33;1.48;;;20.00;99.90;;;;;;6313989;22;20010;-90
2022/06/24 03:33:38;;;;;;;3.15;1.38;;;20.00;99.90;;;;;;6313134;22;20052;-91
2022/06/24 03:36:11;;;;;;;2.03;1.00;;;20.00;99.90;;;;;;6288141;22;20003;-88
2022/06/24 03:38:57;;;;;;;;;;;;;;;;;;;;;
2022/06/24 03:41:52;;;;;;;;;;;;;;;;;;;;;
2022/06/24 03:44:39;;;;;;;1.60;1.23;;;19.80;99.90;;;;;;6343280;22;20074;-90
2022/06/24 03:47:14;;;;;;;2.75;1.42;;;19.80;99.90;;;;;;6314709;22;20034;-91
2022/06/24 03:49:52;;;;;;;;;;;;;;;;;;;;;
2022/06/24 03:52:28;;;;;;;3.08;1.60;;;19.80;99.90;;;;;;6343964;22;20022;-91
2022/06/24 03:55:00;;;;;;;2.38;1.50;;;19.70;99.90;;;;;;6315251;22;20018;-91
2022/06/24 03:57:28;;;;;;;3.28;1.73;;;19.70;99.90;;;;;;6286767;22;20011;-91
2022/06/24 04:00:05;;;;;;;3.30;1.88;;;19.70;99.90;;;;;;6288868;22;20006;-91
2022/06/24 04:02:33;;;;;;;2.13;1.80;;;19.70;99.90;;;;;;6315548;22;20002;-91
2022/06/24 04:05:09;;;;;;;2.53;1.63;;;19.70;99.90;;;;;;6315028;22;20048;-91
2022/06/24 04:07:56;;;;;;;3.60;1.60;;;19.70;99.90;;;;;;6316092;22;20011;-92
2022/06/24 04:10:34;;;;;;;;;;;;;;;;;;;;;
2022/06/24 04:13:09;;;;;;;4.05;1.70;;;19.50;99.90;;;;;;6343804;22;19987;-90
2022/06/24 04:15:56;;;;;;;;;;;;;;;;;;;;;
2022/06/24 04:18:38;;;;;;;;;;;;;;;;;;;;;
2022/06/24 04:21:37;;;;;;;;;;;;;;;;;;;;;
2022/06/24 04:24:23;;;;;;;5.03;2.10;;;19.60;99.90;;;;;;6367791;22;19994;-90
2022/06/24 04:26:58;;;;;;;2.95;2.10;;;19.60;99.90;;;;;;6315655;22;20424;-90
2022/06/24 04:29:33;;;;;;;4.53;1.80;;;19.60;99.90;;;;;;6314657;22;19998;-91
2022/06/24 04:32:27;;;;;;;3.05;1.75;;;19.50;99.90;;;;;;6314693;22;20082;-92
2022/06/24 04:34:58;;;;;;;3.05;1.83;;;19.50;99.90;;;;;;6314688;22;20089;-92
2022/06/24 04:37:54;;;;;;;;;;;;;;;;;;;;;
2022/06/24 04:40:30;;;;;;;3.88;2.00;;;19.50;99.90;;;;;;6316596;22;19985;-92
2022/06/24 04:43:09;;;;;;;3.65;1.88;;;19.50;99.90;;;;;;6313894;22;20029;-91
2022/06/24 04:45:38;;;;;;;3.97;2.17;;;19.50;99.90;;;;;;6318188;22;20003;-90
2022/06/24 04:48:18;;;;;;;2.95;1.90;;;19.50;99.90;;;;;;6317536;22;20408;-90
2022/06/24 04:51:00;;;;;;;2.58;1.70;;;19.50;99.90;;;;;;6316719;22;19994;-91
2022/06/24 04:53:45;;;;;;;;;;;;;;;;;;;;;
2022/06/24 04:56:13;;;;;;;2.50;1.70;;;19.50;99.90;;;;;;6316630;22;20090;-90
2022/06/24 04:58:41;;;;;;;2.63;1.90;;;19.50;99.90;;;;;;6288748;22;20011;-90
2022/06/24 05:01:09;;;;;;;3.67;1.95;;;19.50;99.90;;;;;;6313413;22;20443;-91
2022/06/24 05:03:40;;;;;;;2.42;1.90;;;19.50;99.90;;;;;;6314109;22;20010;-89
2022/06/24 05:06:06;;;;;;;3.80;2.22;;;19.50;99.90;;;;;;6289578;22;20045;-90
2022/06/24 05:08:39;;;;;;;2.47;1.70;;;19.50;99.90;;;;;;6312736;22;20501;-93
2022/06/24 05:11:13;;;;;;;4.93;1.88;;;19.50;99.90;;;;;;6287438;22;20007;-88
2022/06/24 05:13:51;;;;;;;3.65;2.03;;;19.60;99.90;;;;;;6313757;22;20003;-91
2022/06/24 05:16:23;;;;;;;2.47;1.45;;;19.50;99.90;;;;;;6289306;22;20097;-91
2022/06/24 05:18:57;;;;;;;2.58;1.65;;;19.50;99.90;;;;;;6288001;22;20026;-92
2022/06/24 05:21:46;;;;;;;3.30;1.80;;;19.50;99.90;;;;;;6312739;22;19999;-93
2022/06/24 05:24:15;;;;;;;1.80;1.70;;;19.60;99.90;;;;;;6314201;22;19999;-93
2022/06/24 05:27:01;;;;;;;3.63;1.92;;;19.60;99.90;;;;;;6313425;22;19999;-95
2022/06/24 05:29:26;;;;;;;1.90;1.77;;;19.60;99.90;;;;;;6289194;22;20007;-93
2022/06/24 05:32:10;;;;;;;3.03;1.83;;;19.60;99.90;;;;;;6312873;22;20428;-94
2022/06/24 05:35:07;;;;;;;3.00;1.95;;;19.60;99.90;;;;;;6314131;22;20006;-95
2022/06/24 05:38:17;;;;;;;;;;;;;;;;;;;;;
2022/06/24 05:40:53;;;;;;;;;;;;;;;;;;;;;
2022/06/24 05:43:25;;;;;;;5.82;2.33;;;19.70;99.90;;;;;;6341086;22;20074;-92
2022/06/24 05:46:06;;;;;;;;;;;;;;;;;;;;;
2022/06/24 05:48:56;;;;;;;3.92;2.10;;;19.70;99.90;;;;;;6347806;22;19994;-94
2022/06/24 05:51:36;;;;;;;;;;;;;;;;;;;;;
2022/06/24 05:57:26;;;;;;;;;;;;;;;;;;;;;
2022/06/24 05:59:51;;;;;;;2.67;1.80;;;19.70;99.90;;;;;;6342332;22;20067;-93
2022/06/24 06:02:18;;;;;;;3.60;2.20;;;19.70;99.90;;;;;;6293711;22;19987;-93
2022/06/24 06:04:47;;;;;;;2.63;2.00;;;19.70;99.90;;;;;;6315389;22;20474;-94
2022/06/24 06:07:18;;;;;;;2.15;1.88;;;19.70;99.90;;;;;;6314282;22;20018;-95
2022/06/24 06:09:43;;;;;;;2.67;2.20;;;19.70;99.90;;;;;;6314172;22;20413;-94
2022/06/24 06:12:09;;;;;;;2.35;2.10;;;19.70;99.90;;;;;;6314969;22;20029;-94
2022/06/24 06:14:35;;;;;;;2.58;2.35;;;19.80;99.90;;;;;;6298042;22;20007;-93
2022/06/24 06:17:01;;;;;;;2.35;2.15;;;19.80;99.90;;;;;;6340482;22;19983;-86
2022/06/24 06:19:27;;;;;;;2.72;2.53;;;19.80;99.90;;;;;;6340318;22;20021;-92
2022/06/24 06:22:06;;;;;;;5.38;3.83;;;19.80;99.90;;;;;;6316689;22;20003;-93
2022/06/24 06:24:35;;;;;;;18.63;15.02;;;19.80;99.90;;;;;;6335685;22;20303;-92
2022/06/24 06:27:03;;;;;;;8.95;7.88;;;19.80;99.90;;;;;;6291061;22;20068;-93
2022/06/24 06:29:50;;;;;;;7.57;5.18;;;19.80;99.90;;;;;;6317748;22;20010;-94
2022/06/24 06:32:15;;;;;;;5.25;3.50;;;19.90;99.90;;;;;;6353949;22;20053;-92
2022/06/24 06:34:44;;;;;;;4.82;3.45;;;19.90;99.90;;;;;;6315465;22;19999;-93
2022/06/24 06:37:19;;;;;;;3.60;2.80;;;19.90;99.90;;;;;;6315330;22;20051;-91
2022/06/24 06:39:47;;;;;;;4.35;2.70;;;19.90;99.90;;;;;;6316215;22;20011;-93
2022/06/24 06:42:16;;;;;;;3.28;2.78;;;19.90;99.90;;;;;;6315507;22;20028;-92
2022/06/24 06:44:41;;;;;;;3.97;2.78;;;19.90;99.90;;;;;;6315412;22;20005;-92
2022/06/24 06:47:07;;;;;;;5.18;2.75;;;19.90;99.90;;;;;;6315307;22;20332;-90
2022/06/24 06:49:35;;;;;;;4.80;2.65;;;19.90;99.90;;;;;;6314808;22;20003;-92
2022/06/24 06:52:10;;;;;;;3.50;2.63;;;19.90;99.90;;;;;;6315232;22;19999;-94
2022/06/24 06:54:42;;;;;;;12.07;10.25;;;19.80;99.90;;;;;;6316467;22;20396;-94
2022/06/24 06:57:11;;;;;;;9.55;7.40;;;19.90;99.90;;;;;;6314426;22;20007;-92
2022/06/24 06:59:38;;;;;;;7.18;5.45;;;19.90;99.90;;;;;;6289081;22;20007;-93
2022/06/24 07:02:07;;;;;;;5.28;3.90;;;19.90;99.90;;;;;;6314781;22;20029;-93
2022/06/24 07:04:33;;;;;;;3.85;3.13;;;19.90;99.90;;;;;;6289508;22;20447;-92
2022/06/24 07:07:04;;;;;;;3.95;2.90;;;19.90;99.90;;;;;;6289070;22;20002;-92
2022/06/24 07:09:30;;;;;;;5.47;3.03;;;19.90;99.90;;;;;;6314847;22;19999;-92
2022/06/24 07:11:56;;;;;;;4.15;2.85;;;19.90;99.90;;;;;;6314977;22;19999;-92
2022/06/24 07:14:24;;;;;;;3.75;2.72;;;19.90;99.90;;;;;;6315188;22;20022;-92
2022/06/24 07:16:50;;;;;;;3.92;2.80;;;20.00;99.90;;;;;;6315297;22;20006;-92
2022/06/24 07:19:15;;;;;;;3.45;2.38;;;20.00;99.90;;;;;;6288897;22;20316;-91
2022/06/24 07:21:41;;;;;;;7.47;3.40;;;20.00;99.90;;;;;;6315198;22;19999;-93
2022/06/24 07:24:12;;;;;;;4.25;2.70;;;20.00;99.90;;;;;;6314940;22;20493;-93
2022/06/24 07:26:41;;;;;;;5.07;2.75;;;20.00;99.90;;;;;;6314573;22;19999;-91
2022/06/24 07:29:06;;;;;;;3.50;2.70;;;20.00;99.90;;;;;;6290000;22;20428;-93
2022/06/24 07:31:32;;;;;;;3.60;3.00;;;20.00;99.90;;;;;;6315317;22;19999;-93
2022/06/24 07:34:05;;;;;;;5.13;3.08;;;20.00;99.90;;;;;;6315231;22;20063;-93
2022/06/24 07:36:40;;;;;;;4.20;2.90;;;20.00;99.90;;;;;;6316982;22;19995;-92
2022/06/24 07:39:05;;;;;;;4.72;3.28;;;20.00;99.90;;;;;;6317437;22;20014;-95
2022/06/24 07:41:31;;;;;;;4.78;3.08;;;20.00;99.90;;;;;;6317695;22;20003;-93
2022/06/24 07:44:00;;;;;;;5.82;3.25;;;20.10;99.90;;;;;;6319285;22;20022;-95
2022/06/24 07:46:26;;;;;;;5.45;3.33;;;20.10;99.90;;;;;;6320106;22;19999;-93
2022/06/24 07:48:55;;;;;;;6.28;3.50;;;20.10;99.90;;;;;;6318292;22;19998;-94
2022/06/24 07:51:21;;;;;;;4.20;3.75;;;20.10;99.90;;;;;;6316761;22;20005;-93
2022/06/24 07:53:51;;;;;;;4.82;3.80;;;20.10;99.90;;;;;;6316143;22;20019;-90
2022/06/24 07:59:01;;;;;;;3.65;3.15;;;20.20;99.90;;;;;;6342208;22;20021;-92
2022/06/24 08:01:35;;;;;;;3.72;3.42;;;20.10;99.90;;;;;;6317769;22;19999;-92
2022/06/24 08:04:24;;;;;;;4.10;3.70;;;20.20;99.90;;;;;;6317348;22;19994;-92
2022/06/24 08:06:58;;;;;;;4.60;4.20;;;20.20;99.90;;;;;;6345263;22;19995;-94
2022/06/24 08:09:30;;;;;;;5.35;3.72;;;20.20;99.90;;;;;;6316172;22;20005;-92
2022/06/24 08:14:46;;;;;;;5.13;4.43;;;20.20;99.90;;;;;;6319082;22;20308;-90
2022/06/24 08:17:18;;;;;;;4.65;4.20;;;20.20;99.90;;;;;;6317100;22;20002;-94
2022/06/24 08:19:55;;;;;;;5.32;4.50;;;20.20;99.90;;;;;;6335002;22;19987;-94
2022/06/24 08:22:31;;;;;;;10.65;8.75;;;20.20;99.90;;;;;;6341285;22;19990;-89
2022/06/24 08:25:01;;;;;;;7.53;6.40;;;20.30;99.90;;;;;;6341145;22;20003;-92
2022/06/24 08:27:27;;;;;;;6.65;5.20;;;20.30;99.90;;;;;;6340177;22;20003;-93
2022/06/24 08:29:56;;;;;;;6.32;5.72;;;20.30;99.90;;;;;;6301955;22;20003;-95
2022/06/24 08:32:21;;;;;;;5.78;4.97;;;20.30;99.90;;;;;;6361763;22;20451;-92
2022/06/24 08:34:50;;;;;;;5.25;4.75;;;20.40;99.90;;;;;;6331500;22;20027;-93
2022/06/24 08:37:18;;;;;;;5.03;4.53;;;20.40;99.90;;;;;;6330011;22;20007;-90
2022/06/24 08:39:47;;;;;;;4.72;4.22;;;20.40;99.90;;;;;;6334523;22;20002;-90
2022/06/24 08:42:24;;;;;;;4.85;4.30;;;20.40;99.90;;;;;;6364622;22;20017;-94
2022/06/24 08:44:53;;;;;;;6.15;4.80;;;20.40;99.90;;;;;;6322546;22;20034;-92
2022/06/24 08:47:18;;;;;;;5.22;4.38;;;20.50;99.90;;;;;;6314890;22;19999;-92
2022/06/24 08:50:02;;;;;;;6.28;4.65;;;20.60;99.90;;;;;;6313781;22;20005;-92
2022/06/24 08:52:28;;;;;;;5.70;4.72;;;20.60;99.90;;;;;;6292972;22;20010;-91
2022/06/24 08:54:54;;;;;;;7.03;4.60;;;20.70;99.90;;;;;;6313866;22;20003;-92
2022/06/24 08:57:22;;;;;;;8.13;7.32;;;20.70;99.90;;;;;;6313956;22;20010;-94
2022/06/24 08:59:50;;;;;;;11.00;9.90;;;20.80;99.90;;;;;;6314426;22;19999;-92
2022/06/24 09:02:18;;;;;;;8.23;7.20;;;20.80;99.90;;;;;;6314568;22;20006;-96
2022/06/24 09:04:45;;;;;;;6.72;5.72;;;20.90;99.90;;;;;;6314674;22;20010;-91
2022/06/24 09:07:31;;;;;;;5.88;4.97;;;21.00;99.90;;;;;;6341658;22;20005;-91
2022/06/24 09:10:01;;;;;;;5.05;4.65;;;21.00;99.90;;;;;;6340026;22;20006;-94
2022/06/24 09:12:39;;;;;;;4.43;4.03;;;21.00;99.90;;;;;;6315076;22;20324;-92
2022/06/24 09:15:08;;;;;;;4.60;4.20;;;21.10;99.90;;;;;;6313484;22;19999;-91
2022/06/24 09:17:48;;;;;;;5.88;4.30;;;21.10;99.90;;;;;;6314315;22;20011;-92
2022/06/24 09:20:22;;;;;;;5.00;4.60;;;21.20;99.90;;;;;;6314796;22;20033;-92
2022/06/24 09:22:50;;;;;;;6.30;4.60;;;21.20;99.90;;;;;;6313909;22;20257;-92
2022/06/24 09:25:16;;;;;;;4.90;4.47;;;21.20;99.90;;;;;;6314109;22;20014;-92
2022/06/24 09:27:47;;;;;;;5.07;4.57;;;21.30;99.90;;;;;;6312813;22;20013;-92
2022/06/24 09:30:15;;;;;;;4.88;4.38;;;21.30;99.90;;;;;;6313761;22;20053;-91
2022/06/24 09:32:55;;;;;;;4.88;4.47;;;21.40;99.90;;;;;;6313019;22;20002;-91
2022/06/24 09:35:24;;;;;;;5.38;4.22;;;21.40;99.90;;;;;;6341841;22;20361;-92
2022/06/24 09:37:55;;;;;;;5.07;4.57;;;21.40;99.90;;;;;;6343931;22;20413;-95
2022/06/24 09:40:23;;;;;;;5.40;4.75;;;21.50;99.90;;;;;;6287020;22;20095;-93
2022/06/24 09:42:55;;;;;;;14.88;13.23;;;21.50;99.90;;;;;;6340848;22;19999;-90
2022/06/24 09:45:28;;;;;;;8.60;7.63;;;21.50;99.90;;;;;;6313142;22;20420;-90
2022/06/24 09:48:02;;;;;;;6.65;5.93;;;21.50;99.90;;;;;;6313274;22;20030;-92
2022/06/24 09:50:28;;;;;;;6.40;5.80;;;21.50;99.90;;;;;;6313641;22;20002;-92
2022/06/24 09:52:54;;;;;;;6.72;5.32;;;21.50;99.90;;;;;;6341062;22;20048;-92
2022/06/24 09:55:32;;;;;;;7.72;5.65;;;21.60;99.90;;;;;;6313766;22;20002;-94
2022/06/24 09:57:59;;;;;;;6.18;5.50;;;21.60;99.90;;;;;;6313191;22;20006;-92
2022/06/24 10:00:41;;;;;;;6.32;5.78;;;21.60;99.90;;;;;;6314232;22;20417;-91
2022/06/24 10:03:10;;;;;;;6.47;5.80;;;21.60;99.90;;;;;;6314608;22;20082;-92
2022/06/24 10:05:40;;;;;;;6.05;5.55;;;21.60;99.90;;;;;;6340528;22;20006;-92
2022/06/24 10:08:09;;;;;;;7.43;6.40;;;21.60;99.90;;;;;;6314355;22;20056;-93
2022/06/24 10:10:36;;;;;;;6.80;6.20;;;21.60;99.90;;;;;;6313363;22;20002;-91
2022/06/24 10:13:09;;;;;;;7.30;6.70;;;21.70;99.90;;;;;;6314285;22;20006;-92
2022/06/24 10:15:35;;;;;;;6.72;6.13;;;21.60;99.90;;;;;;6313833;22;20140;-92
2022/06/24 10:18:06;;;;;;;7.75;7.05;;;21.70;99.90;;;;;;6288309;22;20160;-92
2022/06/24 10:20:38;;;;;;;6.90;6.30;;;21.70;99.90;;;;;;6314414;22;20078;-92
2022/06/24 10:23:04;;;;;;;8.80;7.25;;;21.70;99.90;;;;;;6314633;22;20003;-93
2022/06/24 10:25:48;;;;;;;7.55;6.85;;;21.70;99.90;;;;;;6316758;22;20028;-90
2022/06/24 10:28:19;;;;;;;7.72;6.93;;;21.80;99.90;;;;;;6340577;22;19991;-94
2022/06/24 10:30:57;;;;;;;7.30;6.53;;;21.80;99.90;;;;;;6340253;22;20029;-92
2022/06/24 10:33:30;;;;;;;7.78;7.07;;;21.90;99.90;;;;;;6366902;22;19991;-90
2022/06/24 10:36:07;;;;;;;7.82;7.07;;;21.90;99.90;;;;;;6367229;22;20806;-91
2022/06/24 10:38:40;;;;;;;8.48;7.78;;;21.90;99.90;;;;;;6335665;22;20015;-92
2022/06/24 10:41:11;;;;;;;9.25;8.32;;;22.00;99.90;;;;;;6314226;22;20336;-93
2022/06/24 10:43:42;;;;;;;9.23;8.43;;;22.10;99.90;;;;;;6339965;22;20009;-94
2022/06/24 10:46:20;;;;;;;10.55;9.27;;;22.20;99.90;;;;;;6314007;22;20003;-92
2022/06/24 10:48:51;;;;;;;9.70;8.80;;;22.20;99.90;;;;;;6340261;22;20010;-92
2022/06/24 10:51:28;;;;;;;8.73;7.95;;;22.20;99.90;;;;;;6313500;22;20421;-92
2022/06/24 10:54:03;;;;;;;8.27;7.50;;;22.20;99.90;;;;;;6341037;22;20021;-93
2022/06/24 10:56:46;;;;;;;7.15;6.55;;;22.30;99.90;;;;;;6314107;22;20021;-95
2022/06/24 10:59:19;;;;;;;7.40;6.70;;;22.30;99.90;;;;;;6340860;22;20015;-93
2022/06/24 11:01:50;;;;;;;8.45;7.60;;;22.40;99.90;;;;;;6313725;22;20014;-95
2022/06/24 11:04:30;;;;;;;7.90;7.10;;;22.50;99.90;;;;;;6288192;22;20003;-93
2022/06/24 11:07:18;;;;;;;7.60;6.90;;;22.50;99.90;;;;;;6342419;22;20397;-93
2022/06/24 11:09:46;;;;;;;7.95;7.20;;;22.60;99.90;;;;;;6315480;22;20429;-93
2022/06/24 11:12:34;;;;;;;7.63;6.97;;;22.70;99.90;;;;;;6289235;22;20014;-92
2022/06/24 11:15:00;;;;;;;7.28;6.45;;;22.70;99.70;;;;;;6318168;22;20002;-94
2022/06/24 11:17:29;;;;;;;6.35;5.75;;;22.80;99.50;;;;;;6316549;22;20439;-92
2022/06/24 11:20:00;;;;;;;6.40;5.80;;;22.80;99.40;;;;;;6322903;22;20022;-91
2022/06/24 11:22:40;;;;;;;5.20;4.38;;;22.90;99.30;;;;;;6319591;22;20003;-91
2022/06/24 11:25:10;;;;;;;5.20;4.65;;;22.90;99.30;;;;;;6317507;22;20026;-94
2022/06/24 11:27:37;;;;;;;5.53;5.03;;;23.00;99.20;;;;;;6316284;22;20003;-92
2022/06/24 11:30:12;;;;;;;5.85;4.85;;;23.00;99.00;;;;;;6316446;22;20245;-93
2022/06/24 11:33:11;;;;;;;5.45;4.32;;;23.00;98.80;;;;;;6343167;22;20006;-92
2022/06/24 11:35:37;;;;;;;4.65;4.25;;;23.20;98.30;;;;;;6315998;22;20021;-94
2022/06/24 11:38:07;;;;;;;4.50;4.10;;;23.20;98.20;;;;;;6315124;22;20015;-92
2022/06/24 11:40:52;;;;;;;4.90;4.40;;;23.20;98.20;;;;;;6315828;22;20003;-93
2022/06/24 11:43:19;;;;;;;4.05;3.65;;;23.30;98.20;;;;;;6343861;22;19999;-92
2022/06/24 11:45:47;;;;;;;4.22;3.80;;;23.30;98.20;;;;;;6341978;22;20098;-90
2022/06/24 11:48:21;;;;;;;4.30;3.90;;;23.40;98.00;;;;;;6341812;22;20068;-94
2022/06/24 11:50:48;;;;;;;6.00;3.80;;;23.40;97.70;;;;;;6290413;22;20029;-95
2022/06/24 11:53:17;;;;;;;4.32;3.92;;;23.40;97.80;;;;;;6315860;22;19994;-93
2022/06/24 11:55:48;;;;;;;5.07;4.00;;;23.30;97.70;;;;;;6315679;22;19998;-90
2022/06/24 11:58:21;;;;;;;4.32;3.92;;;23.30;97.60;;;;;;6315381;22;20010;-92
2022/06/24 12:00:50;;;;;;;4.97;4.05;;;23.20;97.50;;;;;;6289748;22;20006;-91
2022/06/24 12:03:20;;;;;;;4.28;3.88;;;23.20;97.50;;;;;;6315026;22;20013;-92
2022/06/24 12:05:49;;;;;;;5.43;4.93;;;23.10;97.60;;;;;;6317684;22;19995;-90
2022/06/24 12:08:15;;;;;;;6.72;6.13;;;23.00;97.50;;;;;;6315324;22;20481;-92
2022/06/24 12:10:53;;;;;;;6.47;5.80;;;22.90;97.40;;;;;;6316682;22;20009;-91
2022/06/24 12:13:32;;;;;;;7.75;6.95;;;22.90;97.50;;;;;;6291065;22;20003;-94
2022/06/24 12:15:58;;;;;;;7.68;7.07;;;22.80;97.60;;;;;;6358993;22;20058;-91
2022/06/24 12:18:28;;;;;;;7.13;6.50;;;22.70;97.70;;;;;;6325665;22;20013;-91
2022/06/24 12:21:05;;;;;;;6.07;5.57;;;22.70;97.90;;;;;;6328508;22;20006;-92
2022/06/24 12:23:38;;;;;;;5.40;5.00;;;22.50;97.90;;;;;;6332026;22;20084;-92
2022/06/24 12:26:18;;;;;;;6.00;5.50;;;22.50;98.30;;;;;;6296570;22;20106;-92
2022/06/24 12:28:46;;;;;;;6.40;5.90;;;22.50;98.30;;;;;;6316964;22;20035;-92
2022/06/24 12:31:19;;;;;;;6.07;5.57;;;22.40;98.40;;;;;;6316284;22;20412;-94
2022/06/24 12:33:54;;;;;;;5.43;5.03;;;22.50;98.50;;;;;;6317361;22;20320;-94
2022/06/24 12:36:22;;;;;;;5.32;4.85;;;22.50;98.70;;;;;;6318133;22;20155;-91
2022/06/24 12:39:17;;;;;;;4.65;4.18;;;22.60;98.80;;;;;;6341506;22;19998;-90
2022/06/24 12:41:55;;;;;;;4.22;3.85;;;22.60;98.80;;;;;;6314075;22;20007;-89
2022/06/24 12:44:21;;;;;;;4.50;4.10;;;22.70;98.80;;;;;;6340343;22;19990;-91
2022/06/24 12:52:35;;;;;;;5.25;4.75;;;22.80;98.60;;;;;;6343028;22;20368;-92
2022/06/24 12:55:02;;;;;;;5.97;5.47;;;22.90;98.60;;;;;;6342817;22;19995;-94
2022/06/24 12:57:29;;;;;;;6.50;6.00;;;22.90;98.50;;;;;;6289365;22;20043;-92
2022/06/24 13:00:07;;;;;;;;;;;;;;;;;;;;;
2022/06/24 13:02:33;;;;;;;5.25;4.85;;;22.90;98.50;;;;;;6342092;22;20079;-94
2022/06/24 13:05:01;;;;;;;5.53;5.03;;;22.90;98.60;;;;;;6288679;22;20002;-93
2022/06/24 13:07:34;;;;;;;4.53;4.13;;;23.00;98.70;;;;;;6314822;22;20007;-93
2022/06/24 13:10:03;;;;;;;4.70;4.30;;;23.00;98.60;;;;;;6314532;22;20002;-93
2022/06/24 13:12:29;;;;;;;4.05;3.72;;;23.10;98.50;;;;;;6288898;22;20050;-94
2022/06/24 13:14:55;;;;;;;2.53;2.35;;;23.00;98.40;;;;;;6314533;22;19999;-94
2022/06/24 13:17:20;;;;;;;3.35;2.25;;;23.10;98.40;;;;;;6314301;22;20003;-93
2022/06/24 13:19:49;;;;;;;1.60;1.50;;;23.00;98.30;;;;;;6315010;22;20007;-92
2022/06/24 13:22:15;;;;;;;1.90;1.70;;;23.10;97.90;;;;;;6288031;22;20055;-91
2022/06/24 13:24:41;;;;;;;2.35;2.10;;;23.10;97.80;;;;;;6314526;22;20045;-93
2022/06/24 13:27:07;;;;;;;2.50;2.30;;;23.10;97.60;;;;;;6341707;22;20374;-92
2022/06/24 13:29:38;;;;;;;5.15;3.38;;;23.10;97.50;;;;;;6314592;22;20006;-93
2022/06/24 13:32:05;;;;;;;3.28;2.88;;;23.20;97.60;;;;;;6287855;22;20007;-92
2022/06/24 13:34:34;;;;;;;2.75;2.38;;;23.10;97.50;;;;;;6314497;22;20054;-93
2022/06/24 13:37:00;;;;;;;1.80;1.70;;;23.20;97.40;;;;;;6313755;22;20048;-93
2022/06/24 13:39:25;;;;;;;1.75;1.60;;;23.20;97.20;;;;;;6340944;22;20034;-92
2022/06/24 13:41:54;;;;;;;1.88;1.65;;;23.10;96.80;;;;;;6313823;22;19995;-92
2022/06/24 13:44:20;;;;;;;1.65;1.55;;;23.20;96.80;;;;;;6312822;22;20003;-92
2022/06/24 13:46:46;;;;;;;1.85;1.60;;;23.20;96.70;;;;;;6314255;22;20361;-91
2022/06/24 13:49:19;;;;;;;3.28;1.80;;;23.20;96.70;;;;;;6314356;22;20006;-92
2022/06/24 13:51:45;;;;;;;3.08;2.80;;;23.20;96.70;;;;;;6342841;22;20070;-92
2022/06/24 13:54:11;;;;;;;10.32;9.27;;;23.20;96.70;;;;;;6314840;22;20003;-93
2022/06/24 13:56:37;;;;;;;6.85;6.15;;;23.20;96.70;;;;;;6342351;22;19998;-91
2022/06/24 13:59:03;;;;;;;5.18;3.33;;;23.20;96.80;;;;;;6341045;22;20014;-93
2022/06/24 14:01:31;;;;;;;2.63;2.40;;;23.20;96.90;;;;;;6341578;22;20046;-92
2022/06/24 14:03:57;;;;;;;1.83;1.70;;;23.20;96.80;;;;;;6313630;22;19999;-91
2022/06/24 14:06:28;;;;;;;1.50;1.40;;;23.20;96.60;;;;;;6314024;22;20366;-91
2022/06/24 14:08:57;;;;;;;1.63;1.38;;;23.30;96.50;;;;;;6313984;22;20002;-91
2022/06/24 14:11:26;;;;;;;2.33;2.00;;;23.30;96.30;;;;;;6341230;22;19998;-94
2022/06/24 14:13:54;;;;;;;2.28;2.08;;;23.40;96.40;;;;;;6313315;22;19999;-91
2022/06/24 14:16:20;;;;;;;2.58;2.03;;;23.40;96.20;;;;;;6314969;22;20009;-93
2022/06/24 14:18:46;;;;;;;1.83;1.25;;;23.50;96.20;;;;;;6340715;22;20057;-94